createdAt,value
2023-04-22T00:02:08.056Z,12.28
2023-04-22T00:04:37.575Z,12.24
2023-04-22T00:07:06.493Z,12.24
2023-04-22T00:09:35.287Z,12.16
2023-04-22T00:12:03.931Z,12.25
2023-04-22T00:14:32.985Z,12.22
2023-04-22T00:17:02.571Z,12.31
2023-04-22T00:19:32.337Z,12.30
2023-04-22T00:22:00.873Z,12.21
2023-04-22T00:24:29.885Z,12.26
2023-04-22T00:26:58.337Z,12.28
2023-04-22T00:29:27.292Z,12.27
2023-04-22T00:31:55.852Z,12.31
2023-04-22T00:34:24.337Z,12.17
2023-04-22T00:36:52.738Z,12.04
2023-04-22T00:39:21.172Z,12.04
2023-04-22T00:41:49.933Z,11.99
2023-04-22T00:44:18.563Z,12.03
2023-04-22T00:46:47.225Z,12.01
2023-04-22T00:49:16.302Z,12.03
2023-04-22T00:51:44.752Z,12.05
2023-04-22T00:54:14.457Z,12.06
2023-04-22T00:56:43.245Z,12.18
2023-04-22T00:59:11.640Z,12.09
2023-04-22T01:01:40.103Z,12.06
2023-04-22T01:04:09.040Z,12.15
2023-04-22T01:06:37.788Z,12.13
2023-04-22T01:09:06.366Z,12.17
2023-04-22T01:11:36.528Z,12.14
2023-04-22T01:14:05.429Z,12.18
2023-04-22T01:16:36.113Z,12.32
2023-04-22T01:19:05.249Z,12.32
2023-04-22T01:21:35.320Z,12.35
2023-04-22T01:24:03.903Z,12.29
2023-04-22T01:26:32.673Z,12.30
2023-04-22T01:29:02.070Z,12.24
2023-04-22T01:31:30.884Z,12.14
2023-04-22T01:33:59.823Z,12.21
2023-04-22T01:36:29.011Z,12.31
2023-04-22T01:38:57.449Z,12.22
2023-04-22T01:41:28.597Z,12.28
2023-04-22T01:43:58.367Z,12.32
2023-04-22T01:46:27.183Z,12.26
2023-04-22T01:48:55.665Z,12.35
2023-04-22T01:51:24.249Z,12.34
2023-04-22T01:53:52.702Z,12.35
2023-04-22T01:56:21.638Z,12.26
2023-04-22T01:58:50.709Z,12.26
2023-04-22T02:01:19.172Z,12.22
2023-04-22T02:03:47.866Z,12.18
2023-04-22T02:06:16.524Z,12.17
2023-04-22T02:08:45.064Z,12.11
2023-04-22T02:11:15.759Z,12.12
2023-04-22T02:13:44.456Z,12.16
2023-04-22T02:16:12.937Z,12.15
2023-04-22T02:18:42.138Z,12.10
2023-04-22T02:21:10.617Z,12.09
2023-04-22T02:23:40.116Z,12.06
2023-04-22T02:26:08.612Z,12.12
2023-04-22T02:28:37.411Z,12.15
2023-04-22T02:31:06.031Z,12.13
2023-04-22T02:33:34.603Z,12.07
2023-04-22T02:36:03.727Z,12.05
2023-04-22T02:38:32.239Z,12.10
2023-04-22T02:41:00.655Z,12.02
2023-04-22T02:43:29.547Z,11.93
2023-04-22T02:45:57.997Z,11.91
2023-04-22T02:48:26.668Z,12.04
2023-04-22T02:50:55.134Z,12.03
2023-04-22T02:53:23.744Z,12.00
2023-04-22T02:55:52.645Z,11.96
2023-04-22T02:58:21.211Z,12.01
2023-04-22T03:00:49.725Z,11.96
2023-04-22T03:03:18.330Z,11.94
2023-04-22T03:05:47.027Z,12.05
2023-04-22T03:08:16.013Z,12.07
2023-04-22T03:10:44.987Z,12.15
2023-04-22T03:13:14.574Z,12.27
2023-04-22T03:15:43.268Z,12.26
2023-04-22T03:18:11.756Z,12.21
2023-04-22T03:20:40.893Z,12.31
2023-04-22T03:23:10.038Z,12.34
2023-04-22T03:25:39.077Z,12.41
2023-04-22T03:28:07.688Z,12.44
2023-04-22T03:30:36.216Z,12.48
2023-04-22T03:33:04.831Z,12.38
2023-04-22T03:35:44.298Z,12.36
2023-04-22T03:38:13.124Z,12.41
2023-04-22T03:40:42.655Z,12.45
2023-04-22T03:43:19.550Z,12.35
2023-04-22T03:45:57.032Z,12.28
2023-04-22T03:48:30.330Z,12.42
2023-04-22T03:50:58.902Z,12.48
2023-04-22T03:53:27.604Z,12.48
2023-04-22T03:55:59.015Z,12.52
2023-04-22T03:58:27.595Z,12.54
2023-04-22T04:00:56.958Z,12.54
2023-04-22T04:03:29.387Z,12.53
2023-04-22T04:05:59.761Z,12.52
2023-04-22T04:08:28.307Z,12.57
2023-04-22T04:10:58.170Z,12.60
2023-04-22T04:13:27.119Z,12.59
2023-04-22T04:16:19.056Z,12.55
2023-04-22T04:18:53.194Z,12.63
2023-04-22T04:21:22.372Z,12.53
2023-04-22T04:23:54.193Z,12.71
2023-04-22T04:26:27.874Z,12.86
2023-04-22T04:29:02.078Z,12.72
2023-04-22T04:31:30.967Z,12.73
2023-04-22T04:34:00.674Z,12.70
2023-04-22T04:36:29.544Z,12.70
2023-04-22T04:39:04.806Z,12.68
2023-04-22T04:41:34.108Z,12.70
2023-04-22T04:44:03.457Z,12.78
2023-04-22T04:46:37.958Z,12.79
2023-04-22T04:49:09.641Z,12.70
2023-04-22T04:51:46.644Z,12.78
2023-04-22T04:54:16.788Z,12.69
2023-04-22T04:56:45.441Z,12.89
2023-04-22T04:59:14.967Z,13.02
2023-04-22T05:01:46.049Z,13.12
2023-04-22T05:04:18.261Z,13.06
2023-04-22T05:06:48.025Z,13.15
2023-04-22T05:09:18.583Z,13.29
2023-04-22T05:11:49.987Z,13.20
2023-04-22T05:14:22.383Z,13.34
2023-04-22T05:16:52.336Z,13.51
2023-04-22T05:19:28.247Z,13.80
2023-04-22T05:21:59.699Z,13.81
2023-04-22T05:24:28.345Z,13.93
2023-04-22T05:26:58.702Z,14.09
2023-04-22T05:29:28.057Z,14.31
2023-04-22T05:31:56.954Z,14.42
2023-04-22T05:34:28.075Z,14.50
2023-04-22T05:36:58.569Z,14.54
2023-04-22T05:39:28.313Z,14.59
2023-04-22T05:41:57.582Z,14.57
2023-04-22T05:44:26.452Z,14.69
2023-04-22T05:46:54.941Z,14.91
2023-04-22T05:49:23.521Z,14.84
2023-04-22T05:52:11.704Z,14.94
2023-04-22T05:55:13.307Z,15.04
2023-04-22T05:57:42.496Z,15.05
2023-04-22T06:00:22.424Z,15.11
2023-04-22T06:02:56.073Z,15.13
2023-04-22T06:05:25.853Z,15.21
2023-04-22T06:07:54.360Z,15.26
2023-04-22T06:10:22.968Z,15.32
2023-04-22T06:12:52.028Z,15.34
2023-04-22T06:15:21.646Z,15.36
2023-04-22T06:17:52.579Z,15.56
2023-04-22T06:20:21.164Z,15.68
2023-04-22T06:22:49.591Z,15.62
2023-04-22T06:25:18.119Z,15.50
2023-04-22T06:27:46.599Z,15.42
2023-04-22T06:30:15.912Z,15.34
2023-04-22T06:32:45.150Z,15.33
2023-04-22T06:35:13.589Z,15.40
2023-04-22T06:37:42.719Z,15.25
2023-04-22T06:40:11.477Z,15.26
2023-04-22T06:43:09.163Z,15.12
2023-04-22T06:46:06.765Z,15.15
2023-04-22T06:48:41.839Z,15.50
2023-04-22T06:51:29.507Z,15.87
2023-04-22T06:53:58.731Z,15.46
2023-04-22T06:56:27.243Z,15.17
2023-04-22T06:58:55.901Z,15.20
2023-04-22T07:01:24.549Z,15.54
2023-04-22T07:03:53.170Z,15.39
2023-04-22T07:06:21.924Z,15.62
2023-04-22T07:08:52.371Z,15.81
2023-04-22T07:11:21.621Z,16.24
2023-04-22T07:14:00.027Z,16.70
2023-04-22T07:16:29.157Z,16.96
2023-04-22T07:18:59.409Z,17.03
2023-04-22T07:21:28.323Z,17.56
2023-04-22T07:23:57.265Z,17.79
2023-04-22T07:26:26.040Z,17.94
2023-04-22T07:28:54.724Z,17.82
2023-04-22T07:31:23.197Z,17.28
2023-04-22T07:33:51.730Z,17.04
2023-04-22T07:36:20.201Z,17.06
2023-04-22T07:38:48.629Z,16.78
2023-04-22T07:41:17.428Z,16.60
2023-04-22T07:43:45.970Z,16.15
2023-04-22T07:46:15.943Z,16.12
2023-04-22T07:48:44.765Z,16.19
2023-04-22T07:51:13.378Z,16.09
2023-04-22T07:53:41.933Z,15.81
2023-04-22T07:56:10.908Z,15.60
2023-04-22T07:58:39.641Z,15.40
2023-04-22T08:01:08.261Z,15.23
2023-04-22T08:03:36.993Z,15.42
2023-04-22T08:06:05.988Z,15.60
2023-04-22T08:08:34.802Z,15.58
2023-04-22T08:11:03.247Z,15.72
2023-04-22T08:13:31.868Z,15.91
2023-04-22T08:16:03.061Z,15.91
2023-04-22T08:18:31.652Z,16.00
2023-04-22T08:21:00.138Z,16.15
2023-04-22T08:23:28.792Z,16.19
2023-04-22T08:25:58.490Z,16.35
2023-04-22T08:28:27.338Z,16.50
2023-04-22T08:30:55.946Z,16.38
2023-04-22T08:33:27.249Z,16.60
2023-04-22T08:35:56.029Z,16.62
2023-04-22T08:38:24.468Z,16.63
2023-04-22T08:40:56.448Z,17.03
2023-04-22T08:43:28.410Z,16.83
2023-04-22T08:45:56.848Z,16.96
2023-04-22T08:48:26.366Z,16.88
2023-04-22T08:50:55.309Z,17.39
2023-04-22T08:53:24.896Z,17.65
2023-04-22T08:55:54.196Z,17.73
2023-04-22T08:58:23.384Z,17.87
2023-04-22T09:00:51.904Z,17.73
2023-04-22T09:03:20.790Z,17.59
2023-04-22T09:05:49.361Z,17.52
2023-04-22T09:08:18.970Z,17.58
2023-04-22T09:10:47.404Z,17.69
2023-04-22T09:13:15.845Z,17.02
2023-04-22T09:15:44.354Z,16.94
2023-04-22T09:18:12.808Z,16.95
2023-04-22T09:20:42.358Z,17.10
2023-04-22T09:23:10.975Z,17.02
2023-04-22T09:25:40.116Z,16.58
2023-04-22T09:28:12.325Z,16.91
2023-04-22T09:30:40.979Z,17.20
2023-04-22T09:33:09.659Z,17.37
2023-04-22T09:35:40.822Z,17.26
2023-04-22T09:38:11.469Z,17.04
2023-04-22T09:40:43.281Z,17.26
2023-04-22T09:43:12.316Z,17.52
2023-04-22T09:45:42.272Z,17.75
2023-04-22T09:48:11.517Z,18.02
2023-04-22T09:50:44.547Z,18.34
2023-04-22T09:53:14.953Z,18.36
2023-04-22T09:55:48.560Z,18.14
2023-04-22T09:58:18.875Z,17.81
2023-04-22T10:00:49.726Z,17.29
2023-04-22T10:03:19.337Z,16.90
2023-04-22T10:05:48.241Z,16.84
2023-04-22T10:08:17.037Z,16.99
2023-04-22T10:10:45.635Z,17.15
2023-04-22T10:13:14.138Z,17.40
2023-04-22T10:15:55.996Z,17.57
2023-04-22T10:18:28.447Z,17.82
2023-04-22T10:20:57.387Z,17.98
2023-04-22T10:23:26.938Z,17.84
2023-04-22T10:25:56.347Z,17.06
2023-04-22T10:28:25.963Z,17.07
2023-04-22T10:30:54.859Z,17.33
2023-04-22T10:33:24.345Z,17.09
2023-04-22T10:36:08.738Z,16.93
2023-04-22T10:38:42.431Z,16.94
2023-04-22T10:41:14.691Z,17.20
2023-04-22T10:43:47.411Z,17.54
2023-04-22T10:46:40.426Z,17.98
2023-04-22T10:49:18.764Z,18.59
2023-04-22T10:51:58.739Z,18.89
2023-04-22T10:54:53.307Z,18.77
2023-04-22T10:57:24.991Z,18.78
2023-04-22T10:59:56.383Z,18.87
2023-04-22T11:02:25.243Z,18.81
2023-04-22T11:05:21.908Z,18.74
2023-04-22T11:07:56.458Z,18.64
2023-04-22T11:10:42.349Z,18.22
2023-04-22T11:13:19.740Z,18.02
2023-04-22T11:15:49.854Z,17.84
2023-04-22T11:18:26.001Z,17.90
2023-04-22T11:20:54.746Z,17.89
2023-04-22T11:23:25.976Z,17.96
2023-04-22T11:26:05.346Z,18.18
2023-04-22T11:28:35.172Z,18.30
2023-04-22T11:31:10.598Z,18.60
2023-04-22T11:33:39.516Z,18.74
2023-04-22T11:36:12.304Z,18.85
2023-04-22T11:38:40.865Z,18.93
2023-04-22T11:41:09.854Z,18.83
2023-04-22T11:43:48.174Z,18.92
2023-04-22T11:46:16.752Z,19.12
2023-04-22T11:48:45.220Z,19.13
2023-04-22T11:51:14.106Z,19.28
2023-04-22T11:53:50.630Z,19.34
2023-04-22T11:56:19.032Z,19.44
2023-04-22T11:58:47.730Z,19.32
2023-04-22T12:01:16.922Z,19.01
2023-04-22T12:03:45.491Z,19.00
2023-04-22T12:06:14.207Z,19.12
2023-04-22T12:08:44.761Z,19.23
2023-04-22T12:11:13.813Z,19.26
2023-04-22T12:13:46.641Z,19.38
2023-04-22T12:16:18.000Z,19.43
2023-04-22T12:18:53.627Z,19.50
2023-04-22T12:21:23.915Z,19.32
2023-04-22T12:23:57.792Z,19.22
2023-04-22T12:26:27.591Z,19.12
2023-04-22T12:29:00.384Z,18.99
2023-04-22T12:31:29.612Z,18.83
2023-04-22T12:33:58.393Z,18.78
2023-04-22T12:36:29.230Z,18.89
2023-04-22T12:38:57.772Z,18.91
2023-04-22T12:41:25.998Z,18.69
2023-04-22T12:43:55.553Z,18.73
2023-04-22T12:46:23.984Z,18.76
2023-04-22T12:48:53.283Z,18.82
2023-04-22T12:51:22.684Z,18.81
2023-04-22T12:54:20.219Z,18.68
2023-04-22T12:56:48.930Z,18.75
2023-04-22T12:59:19.008Z,18.40
2023-04-22T13:01:47.569Z,17.93
2023-04-22T13:04:16.185Z,17.51
2023-04-22T13:06:46.476Z,16.74
2023-04-22T13:09:16.892Z,16.63
2023-04-22T13:11:45.193Z,16.58
2023-04-22T13:14:15.246Z,16.52
2023-04-22T13:16:43.570Z,16.55
2023-04-22T13:19:12.299Z,16.54
2023-04-22T13:21:41.010Z,16.51
2023-04-22T13:24:09.970Z,16.46
2023-04-22T13:26:39.254Z,16.34
2023-04-22T13:29:11.431Z,16.30
2023-04-22T13:31:42.834Z,16.25
2023-04-22T13:34:13.315Z,16.21
2023-04-22T13:36:42.004Z,15.96
2023-04-22T13:39:10.809Z,15.69
2023-04-22T13:41:39.440Z,15.46
2023-04-22T13:44:07.997Z,15.22
2023-04-22T13:46:36.656Z,15.05
2023-04-22T13:49:06.048Z,14.80
2023-04-22T13:51:34.768Z,14.67
2023-04-22T13:54:04.367Z,14.58
2023-04-22T13:56:33.300Z,14.51
2023-04-22T13:59:01.851Z,14.46
2023-04-22T14:01:31.536Z,14.50
2023-04-22T14:04:00.159Z,14.59
2023-04-22T14:06:28.626Z,14.75
2023-04-22T14:08:57.339Z,14.94
2023-04-22T14:11:27.767Z,15.06
2023-04-22T14:13:56.214Z,15.09
2023-04-22T14:16:25.116Z,15.25
2023-04-22T14:18:54.161Z,15.35
2023-04-22T14:21:24.489Z,15.48
2023-04-22T14:23:54.253Z,15.64
2023-04-22T14:26:22.721Z,15.72
2023-04-22T14:28:51.306Z,15.72
2023-04-22T14:31:20.147Z,15.78
2023-04-22T14:33:48.607Z,15.82
2023-04-22T14:36:17.982Z,15.84
2023-04-22T14:38:46.601Z,15.82
2023-04-22T14:41:15.611Z,15.77
2023-04-22T14:43:44.533Z,15.75
2023-04-22T14:46:13.010Z,15.66
2023-04-22T14:49:43.290Z,15.73
2023-04-22T14:52:58.366Z,15.71
2023-04-22T14:55:26.860Z,15.70
2023-04-22T14:57:59.511Z,15.75
2023-04-22T15:00:28.704Z,15.75
2023-04-22T15:02:57.473Z,15.83
2023-04-22T15:05:26.048Z,15.89
2023-04-22T15:07:55.703Z,15.79
2023-04-22T15:10:25.319Z,15.79
2023-04-22T15:12:54.325Z,15.84
2023-04-22T15:15:22.978Z,15.84
2023-04-22T15:17:51.544Z,15.84
2023-04-22T15:20:20.216Z,15.84
2023-04-22T15:22:50.904Z,15.87
2023-04-22T15:25:19.681Z,15.86
2023-04-22T15:27:48.908Z,15.90
2023-04-22T15:30:18.311Z,15.84
2023-04-22T15:32:47.118Z,15.79
2023-04-22T15:35:15.812Z,15.70
2023-04-22T15:37:46.016Z,15.67
2023-04-22T15:40:14.819Z,15.69
2023-04-22T15:42:43.492Z,15.66
2023-04-22T15:45:12.866Z,15.66
2023-04-22T15:47:41.856Z,15.67
2023-04-22T15:50:10.804Z,15.68
2023-04-22T15:52:39.992Z,15.64
2023-04-22T15:55:09.691Z,15.55
2023-04-22T15:57:39.246Z,15.49
2023-04-22T16:00:12.299Z,15.45
2023-04-22T16:02:44.543Z,15.45
2023-04-22T16:05:15.128Z,15.35
2023-04-22T16:07:44.419Z,15.32
2023-04-22T16:10:13.516Z,15.37
2023-04-22T16:12:42.824Z,15.34
2023-04-22T16:15:11.755Z,15.27
2023-04-22T16:17:41.241Z,15.22
2023-04-22T16:20:10.585Z,15.15
2023-04-22T16:22:40.179Z,15.09
2023-04-22T16:25:09.847Z,14.96
2023-04-22T16:27:38.841Z,14.83
2023-04-22T16:30:08.437Z,14.76
2023-04-22T16:32:37.557Z,14.68
2023-04-22T16:35:07.412Z,14.61
2023-04-22T16:37:37.023Z,14.54
2023-04-22T16:40:06.477Z,14.45
2023-04-22T16:42:35.456Z,14.37
2023-04-22T16:45:04.403Z,14.29
2023-04-22T16:47:33.188Z,14.20
2023-04-22T16:50:01.763Z,14.13
2023-04-22T16:52:31.420Z,14.03
2023-04-22T16:55:00.809Z,13.95
2023-04-22T16:57:29.678Z,14.02
2023-04-22T16:59:59.433Z,13.85
2023-04-22T17:02:28.360Z,13.76
2023-04-22T17:04:57.014Z,13.68
2023-04-22T17:07:26.650Z,13.63
2023-04-22T17:09:55.913Z,13.51
2023-04-22T17:12:24.520Z,13.36
2023-04-22T17:14:53.261Z,13.35
2023-04-22T17:17:23.177Z,13.28
2023-04-22T17:19:54.285Z,13.30
2023-04-22T17:22:24.956Z,13.34
2023-04-22T17:24:53.887Z,13.40
2023-04-22T17:27:22.940Z,13.41
2023-04-22T17:29:51.477Z,13.39
2023-04-22T17:32:20.168Z,13.42
2023-04-22T17:34:48.541Z,13.46
2023-04-22T17:37:18.282Z,13.47
2023-04-22T17:39:49.233Z,13.44
2023-04-22T17:42:58.064Z,13.41
2023-04-22T17:45:26.961Z,13.42
2023-04-22T17:47:55.521Z,13.37
2023-04-22T17:50:24.310Z,13.38
2023-04-22T17:52:53.313Z,13.34
2023-04-22T17:55:22.276Z,13.32
2023-04-22T17:57:50.971Z,13.21
2023-04-22T18:00:19.507Z,13.13
2023-04-22T18:02:48.566Z,13.07
2023-04-22T18:05:18.616Z,13.01
2023-04-22T18:07:47.812Z,12.90
2023-04-22T18:10:18.959Z,12.85
2023-04-22T18:12:47.647Z,12.84
2023-04-22T18:15:16.310Z,12.94
2023-04-22T18:17:55.052Z,12.89
2023-04-22T18:20:25.266Z,12.68
2023-04-22T18:22:53.969Z,12.61
2023-04-22T18:25:22.841Z,12.51
2023-04-22T18:27:55.257Z,12.49
2023-04-22T18:30:24.171Z,12.41
2023-04-22T18:32:55.655Z,12.36
2023-04-22T18:35:26.644Z,12.36
2023-04-22T18:37:59.298Z,12.28
2023-04-22T18:40:54.204Z,12.22
2023-04-22T18:43:24.759Z,12.23
2023-04-22T18:45:55.556Z,12.16
2023-04-22T18:48:25.312Z,12.11
2023-04-22T18:50:55.137Z,12.08
2023-04-22T18:53:25.144Z,12.06
2023-04-22T18:55:58.916Z,12.01
2023-04-22T18:58:27.501Z,12.00
2023-04-22T19:00:56.622Z,11.99
2023-04-22T19:03:31.009Z,11.97
2023-04-22T19:10:23.633Z,11.82
2023-04-22T19:12:55.238Z,11.76
2023-04-22T19:15:40.095Z,11.75
2023-04-22T19:18:19.964Z,11.75
2023-04-22T19:20:48.534Z,11.75
2023-04-22T19:23:18.488Z,11.73
2023-04-22T19:26:13.221Z,11.72
2023-04-22T19:28:47.297Z,11.73
2023-04-22T19:31:19.449Z,11.65
2023-04-22T19:34:19.840Z,11.65
2023-04-22T19:36:55.014Z,11.65
2023-04-22T19:39:25.224Z,11.60
2023-04-22T19:41:55.045Z,11.60
2023-04-22T19:44:23.801Z,11.61
2023-04-22T19:46:53.130Z,11.57
2023-04-22T19:49:22.349Z,11.52
2023-04-22T19:51:55.350Z,11.50
2023-04-22T19:54:23.962Z,11.52
2023-04-22T19:57:06.894Z,11.61
2023-04-22T19:59:40.171Z,11.46
2023-04-22T20:02:10.545Z,11.44
2023-04-22T20:04:42.763Z,11.41
2023-04-22T20:07:14.562Z,11.39
2023-04-22T20:09:43.926Z,11.32
2023-04-22T20:12:13.183Z,11.45
2023-04-22T20:14:42.261Z,11.50
2023-04-22T20:17:11.184Z,11.57
2023-04-22T20:19:41.281Z,11.55
2023-04-22T20:22:10.060Z,11.55
2023-04-22T20:24:40.998Z,11.51
2023-04-22T20:27:10.303Z,11.42
2023-04-22T20:29:39.025Z,11.37
2023-04-22T20:32:09.664Z,11.27
2023-04-22T20:34:39.020Z,11.23
2023-04-22T20:37:10.586Z,11.16
2023-04-22T20:39:39.570Z,11.12
2023-04-22T20:42:08.356Z,11.11
2023-04-22T20:44:38.284Z,11.08
2023-04-22T20:47:08.078Z,11.06
2023-04-22T20:49:40.614Z,11.08
2023-04-22T20:52:12.274Z,11.08
2023-04-22T20:54:41.352Z,11.04
2023-04-22T20:57:10.321Z,11.04
2023-04-22T20:59:38.768Z,10.99
2023-04-22T21:02:07.246Z,10.99
2023-04-22T21:04:36.624Z,10.96
2023-04-22T21:07:08.120Z,10.95
2023-04-22T21:09:36.855Z,11.07
2023-04-22T21:12:06.012Z,11.00
2023-04-22T21:14:34.832Z,10.89
2023-04-22T21:17:06.287Z,10.84
2023-04-22T21:19:35.107Z,10.81
2023-04-22T21:22:05.656Z,10.79
2023-04-22T21:24:38.969Z,10.75
2023-04-22T21:27:08.772Z,10.72
2023-04-22T21:29:38.515Z,10.70
2023-04-22T21:32:09.771Z,10.66
2023-04-22T21:34:39.490Z,10.65
2023-04-22T21:37:09.490Z,10.69
2023-04-22T21:39:38.032Z,10.69
2023-04-22T21:42:08.901Z,10.68
2023-04-22T21:44:38.287Z,10.68
2023-04-22T21:47:06.946Z,10.67
2023-04-22T21:49:35.992Z,10.66
2023-04-22T21:52:05.494Z,10.58
2023-04-22T21:54:35.048Z,10.60
2023-04-22T21:57:03.912Z,10.63
2023-04-22T21:59:33.091Z,10.68
2023-04-22T22:02:01.938Z,10.62
2023-04-22T22:04:30.892Z,10.64
2023-04-22T22:06:59.445Z,10.60
2023-04-22T22:09:27.877Z,10.58
2023-04-22T22:11:56.244Z,10.58
2023-04-22T22:14:24.867Z,10.58
2023-04-22T22:16:54.018Z,10.57
2023-04-22T22:19:22.592Z,10.58
2023-04-22T22:21:51.572Z,10.60
2023-04-22T22:24:20.013Z,10.55
2023-04-22T22:26:49.253Z,10.50
2023-04-22T22:29:17.811Z,10.50
2023-04-22T22:31:47.389Z,10.51
2023-04-22T22:34:16.044Z,10.54
2023-04-22T22:36:44.251Z,10.49
2023-04-22T22:39:14.563Z,10.54
2023-04-22T22:41:44.060Z,10.60
2023-04-22T22:44:13.183Z,10.55
2023-04-22T22:46:41.648Z,10.57
2023-04-22T22:49:11.052Z,10.58
2023-04-22T22:51:39.466Z,10.61
2023-04-22T22:54:08.385Z,10.65
2023-04-22T22:56:37.215Z,10.69
2023-04-22T22:59:05.959Z,10.69
2023-04-22T23:01:34.785Z,10.70
2023-04-22T23:04:04.482Z,10.76
2023-04-22T23:06:33.270Z,10.75
2023-04-22T23:09:02.147Z,10.80
2023-04-22T23:11:30.957Z,10.83
2023-04-22T23:13:59.436Z,10.88
2023-04-22T23:16:27.966Z,10.90
2023-04-22T23:18:56.665Z,10.93
2023-04-22T23:21:25.312Z,10.99
2023-04-22T23:23:54.304Z,11.05
2023-04-22T23:26:22.992Z,11.02
2023-04-22T23:28:52.284Z,11.06
2023-04-22T23:31:21.044Z,11.07
2023-04-22T23:33:50.226Z,11.03
2023-04-22T23:36:22.470Z,10.99
2023-04-22T23:38:50.983Z,11.01
2023-04-22T23:41:20.091Z,11.11
2023-04-22T23:43:48.666Z,11.15
2023-04-22T23:46:18.661Z,11.19
2023-04-22T23:48:47.583Z,11.20
2023-04-22T23:51:17.248Z,11.23
2023-04-22T23:53:46.910Z,11.28
2023-04-22T23:56:20.344Z,11.29
2023-04-22T23:58:49.909Z,11.30
